Velikiy Ustyug, Russia
Current Conditions -  °F | °C
As of 3:30 PM on Monday 24 Nov 2014 (Local Time) from UUYY Reporting Station
Overcast Overcast  
Wind Chill: -2°   Ceiling: 900
Heat Index: 10°   Visibility: 4mi
Dew Point:   Wind: 9mph
Humidity: 85%   Direction: 210°SSW
Pressure: 30.42"   Gusts: 16mph
Location:  60.77°N, 46.3°E
Report Text: UUYY 241230Z 21004G07MPS 7000 OVC009 M12/M14 Q1030 NOSIG 1981//51 RMK QFE764/1019
Loading
Personal Weather Stations






























Interactive Weather Map New forecast layout! Learn more

10-Day Weather Forecast

Advertisements
Track Severe Weather on mobile